createdAt,value
2023-04-18T00:01:25.038Z,12.65
2023-04-18T00:03:52.782Z,12.15
2023-04-18T00:06:22.327Z,12.53
2023-04-18T00:08:49.404Z,13.10
2023-04-18T00:11:16.439Z,13.14
2023-04-18T00:13:43.626Z,12.85
2023-04-18T00:16:10.588Z,12.67
2023-04-18T00:18:39.998Z,13.11
2023-04-18T00:21:26.873Z,12.93
2023-04-18T00:24:27.813Z,12.77
2023-04-18T00:27:08.594Z,13.17
2023-04-18T00:29:35.620Z,12.64
2023-04-18T00:32:02.614Z,12.49
2023-04-18T00:34:30.818Z,11.98
2023-04-18T00:36:57.832Z,12.46
2023-04-18T00:39:24.842Z,12.08
2023-04-18T00:41:51.948Z,12.08
2023-04-18T00:44:18.854Z,12.17
2023-04-18T00:46:45.970Z,12.00
2023-04-18T00:49:13.217Z,12.23
2023-04-18T00:51:40.956Z,10.97
2023-04-18T00:54:08.569Z,12.34
2023-04-18T00:56:36.281Z,12.12
2023-04-18T00:59:03.908Z,11.28
2023-04-18T01:01:31.006Z,12.12
2023-04-18T01:03:58.156Z,11.88
2023-04-18T01:06:27.457Z,11.00
2023-04-18T01:08:56.757Z,11.60
2023-04-18T01:11:25.273Z,11.66
2023-04-18T01:14:06.086Z,11.33
2023-04-18T01:16:37.263Z,11.29
2023-04-18T01:19:06.135Z,11.91
2023-04-18T01:21:50.029Z,11.92
2023-04-18T01:24:50.929Z,12.01
2023-04-18T01:27:31.721Z,11.74
2023-04-18T01:30:00.312Z,11.48
2023-04-18T01:32:30.709Z,11.67
2023-04-18T01:35:17.867Z,11.70
2023-04-18T01:37:58.731Z,11.77
2023-04-18T01:40:27.592Z,11.68
2023-04-18T01:42:54.576Z,11.79
2023-04-18T01:45:22.569Z,11.56
2023-04-18T01:47:49.704Z,11.36
2023-04-18T01:50:16.748Z,11.52
2023-04-18T01:52:43.900Z,11.69
2023-04-18T01:55:11.093Z,11.00
2023-04-18T01:57:38.194Z,11.23
2023-04-18T02:00:06.879Z,11.89
2023-04-18T02:02:43.828Z,11.81
2023-04-18T02:05:11.153Z,11.26
2023-04-18T02:07:42.920Z,11.46
2023-04-18T02:10:11.071Z,11.91
2023-04-18T02:12:38.527Z,11.69
2023-04-18T02:15:06.848Z,10.91
2023-04-18T02:17:36.437Z,11.35
2023-04-18T02:20:17.882Z,11.40
2023-04-18T02:23:09.337Z,11.05
2023-04-18T02:25:36.341Z,11.23
2023-04-18T02:28:03.482Z,10.93
2023-04-18T02:30:31.470Z,10.83
2023-04-18T02:33:01.294Z,10.75
2023-04-18T02:35:29.192Z,10.57
2023-04-18T02:37:56.552Z,10.69
2023-04-18T02:40:23.581Z,10.15
2023-04-18T02:42:50.782Z,10.82
2023-04-18T02:45:17.980Z,10.06
2023-04-18T02:47:54.751Z,9.81
2023-04-18T02:50:24.724Z,10.13
2023-04-18T02:52:53.805Z,10.49
2023-04-18T02:55:24.493Z,10.29
2023-04-18T02:57:55.372Z,10.25
2023-04-18T03:00:42.212Z,10.29
2023-04-18T03:04:01.886Z,10.29
2023-04-18T03:07:06.920Z,10.64
2023-04-18T03:09:48.606Z,10.63
2023-04-18T03:12:20.140Z,10.54
2023-04-18T03:14:47.536Z,9.82
2023-04-18T03:17:15.170Z,10.55
2023-04-18T03:19:47.201Z,10.54
2023-04-18T03:22:35.912Z,10.56
2023-04-18T03:25:17.644Z,10.77
2023-04-18T03:27:50.589Z,10.20
2023-04-18T03:30:21.009Z,10.86
2023-04-18T03:32:56.268Z,10.95
2023-04-18T03:35:23.620Z,10.72
2023-04-18T03:37:50.893Z,10.57
2023-04-18T03:40:26.313Z,11.16
2023-04-18T03:42:57.157Z,10.79
2023-04-18T03:45:24.147Z,11.15
2023-04-18T03:47:51.307Z,11.20
2023-04-18T03:50:19.165Z,10.70
2023-04-18T03:52:47.742Z,10.72
2023-04-18T03:55:16.849Z,10.57
2023-04-18T03:57:43.798Z,10.62
2023-04-18T04:00:16.760Z,10.64
2023-04-18T04:02:44.127Z,10.77
2023-04-18T04:05:18.139Z,9.75
2023-04-18T04:07:45.552Z,10.49
2023-04-18T04:10:12.909Z,10.08
2023-04-18T04:12:39.784Z,10.31
2023-04-18T04:15:07.214Z,10.42
2023-04-18T04:17:35.528Z,10.34
2023-04-18T04:20:23.935Z,10.61
2023-04-18T04:23:35.925Z,10.46
2023-04-18T04:26:27.674Z,10.24
2023-04-18T04:29:03.713Z,10.24
2023-04-18T04:31:32.610Z,10.55
2023-04-18T04:33:59.532Z,10.58
2023-04-18T04:36:27.329Z,10.75
2023-04-18T04:38:57.317Z,10.55
2023-04-18T04:41:32.403Z,10.60
2023-04-18T04:43:59.722Z,10.67
2023-04-18T04:46:30.676Z,10.74
2023-04-18T04:49:19.959Z,10.71
2023-04-18T04:52:02.009Z,10.61
2023-04-18T04:54:29.527Z,10.58
2023-04-18T04:56:56.784Z,10.80
2023-04-18T04:59:23.740Z,10.76
2023-04-18T05:02:11.020Z,11.04
2023-04-18T05:04:51.623Z,10.53
2023-04-18T05:07:18.526Z,10.82
2023-04-18T05:09:45.701Z,10.49
2023-04-18T05:12:12.612Z,10.09
2023-04-18T05:14:59.980Z,10.87
2023-04-18T05:18:00.994Z,10.39
2023-04-18T05:21:01.972Z,10.88
2023-04-18T05:23:42.663Z,10.93
2023-04-18T05:26:09.563Z,11.28
2023-04-18T05:28:36.513Z,11.19
2023-04-18T05:31:24.050Z,11.13
2023-04-18T05:34:25.039Z,11.20
2023-04-18T05:37:05.783Z,11.50
2023-04-18T05:39:53.001Z,11.64
2023-04-18T05:42:33.633Z,11.84
2023-04-18T05:45:00.756Z,11.89
2023-04-18T05:47:48.045Z,12.12
2023-04-18T05:50:49.009Z,13.68
2023-04-18T05:53:29.593Z,14.79
2023-04-18T05:55:57.703Z,15.46
2023-04-18T05:58:24.652Z,14.92
2023-04-18T06:00:52.960Z,14.73
2023-04-18T06:03:40.497Z,14.55
2023-04-18T06:06:21.262Z,14.92
2023-04-18T06:08:48.231Z,14.97
2023-04-18T06:11:15.539Z,14.07
2023-04-18T06:13:43.040Z,14.55
2023-04-18T06:16:10.070Z,14.62
2023-04-18T06:18:37.094Z,15.11
2023-04-18T06:21:24.054Z,15.35
2023-04-18T06:24:04.594Z,15.11
2023-04-18T06:26:32.110Z,15.49
2023-04-18T06:28:59.103Z,15.68
2023-04-18T06:31:46.023Z,15.84
2023-04-18T06:34:26.723Z,16.05
2023-04-18T06:36:54.093Z,16.62
2023-04-18T06:39:21.357Z,17.03
2023-04-18T06:41:49.359Z,17.69
2023-04-18T06:44:27.412Z,19.02
2023-04-18T06:46:55.077Z,19.55
2023-04-18T06:49:26.237Z,19.87
2023-04-18T06:51:53.683Z,21.95
2023-04-18T06:54:20.583Z,22.63
2023-04-18T06:56:47.713Z,23.05
2023-04-18T06:59:14.956Z,23.32
2023-04-18T07:02:02.057Z,24.03
2023-04-18T07:05:03.033Z,24.59
2023-04-18T07:08:04.012Z,22.68
2023-04-18T07:10:44.791Z,22.86
2023-04-18T07:13:32.063Z,22.05
2023-04-18T07:16:16.138Z,20.90
2023-04-18T07:19:03.084Z,19.07
2023-04-18T07:22:04.091Z,17.20
2023-04-18T07:24:44.720Z,18.50
2023-04-18T07:27:11.698Z,18.45
2023-04-18T07:29:38.721Z,19.87
2023-04-18T07:32:08.173Z,19.75
2023-04-18T07:34:36.304Z,19.80
2023-04-18T07:37:03.496Z,20.66
2023-04-18T07:39:44.069Z,20.11
2023-04-18T07:42:34.608Z,21.59
2023-04-18T07:45:01.536Z,22.12
2023-04-18T07:47:49.099Z,22.39
2023-04-18T07:50:50.074Z,22.36
2023-04-18T07:53:30.625Z,21.51
2023-04-18T07:56:19.055Z,21.35
2023-04-18T07:58:59.656Z,20.74
2023-04-18T08:01:27.332Z,20.46
2023-04-18T08:03:56.299Z,21.02
2023-04-18T08:06:23.478Z,20.48
2023-04-18T08:08:50.403Z,21.13
2023-04-18T08:11:17.330Z,21.57
2023-04-18T08:13:44.346Z,20.48
2023-04-18T08:16:11.372Z,21.08
2023-04-18T08:18:58.085Z,21.53
2023-04-18T08:21:59.085Z,20.31
2023-04-18T08:24:40.122Z,20.51
2023-04-18T08:27:07.182Z,20.38
2023-04-18T08:29:34.285Z,20.78
2023-04-18T08:32:01.417Z,20.55
2023-04-18T08:34:29.384Z,21.24
2023-04-18T08:36:56.749Z,21.30
2023-04-18T08:39:25.237Z,21.30
2023-04-18T08:41:59.715Z,20.60
2023-04-18T08:44:30.697Z,20.73
2023-04-18T08:46:57.787Z,21.57
2023-04-18T08:49:25.295Z,21.80
2023-04-18T08:51:53.150Z,21.79
2023-04-18T08:54:22.522Z,21.38
2023-04-18T08:57:10.512Z,20.85
2023-04-18T08:59:37.504Z,21.37
2023-04-18T09:02:08.941Z,21.59
2023-04-18T09:04:45.179Z,20.89
2023-04-18T09:07:17.121Z,19.84
2023-04-18T09:10:06.108Z,19.27
2023-04-18T09:12:55.446Z,20.01
2023-04-18T09:15:24.128Z,20.96
2023-04-18T09:17:56.341Z,20.79
2023-04-18T09:20:47.101Z,21.62
2023-04-18T09:23:48.134Z,20.50
2023-04-18T09:26:36.356Z,20.13
2023-04-18T09:29:03.775Z,19.36
2023-04-18T09:31:30.857Z,20.26
2023-04-18T09:33:57.985Z,20.25
2023-04-18T09:36:31.434Z,20.29
2023-04-18T09:38:58.513Z,20.45
2023-04-18T09:41:25.465Z,20.35
2023-04-18T09:44:11.662Z,19.92
2023-04-18T09:46:39.536Z,20.25
2023-04-18T09:49:07.907Z,19.71
2023-04-18T09:51:36.752Z,19.68
2023-04-18T09:54:05.626Z,20.85
2023-04-18T09:56:34.703Z,19.19
2023-04-18T09:59:08.530Z,19.96
2023-04-18T10:01:36.127Z,20.43
2023-04-18T10:04:04.607Z,20.15
2023-04-18T10:06:53.155Z,20.40
2023-04-18T10:09:55.165Z,19.67
2023-04-18T10:12:37.339Z,19.37
2023-04-18T10:15:06.710Z,19.69
2023-04-18T10:18:02.844Z,19.26
2023-04-18T10:20:55.148Z,20.42
2023-04-18T10:23:39.937Z,20.30
2023-04-18T10:26:08.438Z,20.50
2023-04-18T10:28:55.096Z,20.07
2023-04-18T10:31:23.977Z,20.05
2023-04-18T10:34:05.134Z,20.79
2023-04-18T10:37:13.001Z,21.12
2023-04-18T10:39:50.070Z,21.11
2023-04-18T10:42:17.577Z,19.95
2023-04-18T10:45:17.222Z,20.79
2023-04-18T10:47:44.440Z,20.58
2023-04-18T10:50:31.225Z,20.87
2023-04-18T10:53:32.167Z,21.45
2023-04-18T10:56:14.614Z,20.39
2023-04-18T10:58:42.014Z,20.15
2023-04-18T11:01:12.474Z,20.35
2023-04-18T11:03:59.319Z,21.51
2023-04-18T11:06:51.283Z,21.31
2023-04-18T11:09:18.228Z,21.62
2023-04-18T11:11:45.236Z,22.18
2023-04-18T11:14:32.224Z,22.63
2023-04-18T11:17:32.841Z,22.96
2023-04-18T11:20:22.204Z,22.79
2023-04-18T11:23:20.710Z,22.11
2023-04-18T11:25:54.582Z,23.12
2023-04-18T11:28:22.649Z,23.45
2023-04-18T11:30:49.633Z,23.06
2023-04-18T11:33:16.949Z,23.39
2023-04-18T11:35:45.835Z,22.99
2023-04-18T11:38:16.469Z,22.21
2023-04-18T11:41:08.314Z,22.48
2023-04-18T11:48:53.959Z,20.31
2023-04-18T11:51:40.260Z,20.77
2023-04-18T11:54:49.241Z,21.52
2023-04-18T11:57:50.226Z,21.16
2023-04-18T12:00:53.239Z,22.44
2023-04-18T12:03:54.341Z,21.76
2023-04-18T12:06:25.205Z,21.94
2023-04-18T12:08:58.870Z,21.93
2023-04-18T12:11:26.002Z,22.71
2023-04-18T12:14:14.377Z,22.90
2023-04-18T12:16:54.965Z,22.54
2023-04-18T12:19:31.602Z,22.23
2023-04-18T12:22:18.292Z,21.90
2023-04-18T12:25:25.012Z,21.83
2023-04-18T12:28:04.609Z,21.93
2023-04-18T12:30:36.000Z,21.03
2023-04-18T12:33:24.242Z,20.93
2023-04-18T12:36:08.656Z,21.21
2023-04-18T12:38:35.717Z,20.65
2023-04-18T12:41:02.865Z,20.72
2023-04-18T12:43:50.259Z,20.58
2023-04-18T12:46:51.267Z,20.53
2023-04-18T12:49:52.278Z,20.41
2023-04-18T12:52:54.236Z,20.68
2023-04-18T12:55:38.034Z,21.43
2023-04-18T12:58:05.009Z,21.53
2023-04-18T13:00:32.638Z,21.70
2023-04-18T13:03:00.114Z,22.34
2023-04-18T13:05:47.310Z,22.33
2023-04-18T13:08:48.285Z,22.60
2023-04-18T13:11:49.731Z,22.36
2023-04-18T13:14:16.723Z,22.73
2023-04-18T13:16:44.158Z,22.62
2023-04-18T13:19:11.512Z,23.28
2023-04-18T13:21:58.339Z,23.52
2023-04-18T13:24:38.910Z,23.43
2023-04-18T13:27:10.597Z,23.62
2023-04-18T13:29:39.710Z,24.00
2023-04-18T13:32:07.367Z,23.07
2023-04-18T13:34:59.300Z,23.11
2023-04-18T13:37:39.936Z,23.71
2023-04-18T13:40:27.333Z,24.07
2023-04-18T13:43:28.278Z,24.36
2023-04-18T13:46:30.326Z,24.57
2023-04-18T13:49:31.324Z,24.36
2023-04-18T13:52:32.313Z,24.55
2023-04-18T13:55:33.300Z,24.72
2023-04-18T13:58:34.329Z,24.61
2023-04-18T14:01:16.614Z,23.12
2023-04-18T14:03:43.990Z,22.66
2023-04-18T14:06:31.337Z,22.72
2023-04-18T14:09:12.165Z,22.80
2023-04-18T14:11:39.211Z,23.72
2023-04-18T14:14:26.351Z,23.86
2023-04-18T14:17:27.333Z,24.32
2023-04-18T14:20:28.346Z,24.03
2023-04-18T14:23:09.001Z,24.07
2023-04-18T14:25:35.902Z,23.78
2023-04-18T14:28:08.774Z,23.71
2023-04-18T14:30:37.001Z,23.76
2023-04-18T14:33:04.380Z,23.69
2023-04-18T14:35:32.196Z,23.52
2023-04-18T14:37:59.117Z,23.49
2023-04-18T14:40:26.010Z,24.17
2023-04-18T14:42:52.937Z,23.57
2023-04-18T14:45:19.939Z,23.68
2023-04-18T14:48:08.773Z,23.70
2023-04-18T14:50:57.329Z,23.38
2023-04-18T14:53:37.445Z,23.33
2023-04-18T14:56:31.354Z,22.28
2023-04-18T14:58:58.745Z,22.23
2023-04-18T15:01:26.488Z,21.09
2023-04-18T15:04:13.661Z,21.45
2023-04-18T15:07:14.208Z,21.81
2023-04-18T15:09:41.978Z,21.12
2023-04-18T15:12:08.898Z,20.54
2023-04-18T15:14:35.954Z,20.52
2023-04-18T15:17:05.880Z,20.44
2023-04-18T15:19:32.906Z,20.29
2023-04-18T15:22:20.339Z,20.40
2023-04-18T15:25:14.419Z,20.16
2023-04-18T15:27:54.979Z,19.88
2023-04-18T15:30:22.745Z,20.04
2023-04-18T15:32:49.801Z,19.76
2023-04-18T15:35:17.238Z,20.16
2023-04-18T15:37:44.334Z,19.92
2023-04-18T15:40:16.135Z,19.78
2023-04-18T15:42:43.838Z,19.84
2023-04-18T15:45:11.770Z,19.83
2023-04-18T15:47:38.926Z,19.82
2023-04-18T15:50:07.021Z,20.02
2023-04-18T15:52:34.135Z,19.91
2023-04-18T15:55:01.125Z,19.81
2023-04-18T15:57:29.870Z,20.03
2023-04-18T15:59:57.257Z,19.37
2023-04-18T16:02:25.394Z,20.10
2023-04-18T16:04:52.493Z,20.04
2023-04-18T16:07:19.439Z,19.95
2023-04-18T16:10:06.398Z,19.75
2023-04-18T16:12:46.983Z,19.61
2023-04-18T16:15:14.044Z,19.68
2023-04-18T16:18:01.414Z,19.51
2023-04-18T16:21:02.419Z,19.32
2023-04-18T16:24:03.398Z,19.30
2023-04-18T16:26:43.920Z,19.14
2023-04-18T16:29:11.128Z,19.31
2023-04-18T16:31:38.177Z,19.10
2023-04-18T16:34:05.528Z,19.10
2023-04-18T16:36:53.467Z,18.95
2023-04-18T16:39:35.205Z,18.62
2023-04-18T16:42:03.659Z,18.20
2023-04-18T16:44:30.891Z,18.70
2023-04-18T16:47:18.408Z,18.67
2023-04-18T16:49:59.128Z,18.69
2023-04-18T16:52:46.437Z,18.65
2023-04-18T16:55:27.145Z,18.03
2023-04-18T16:57:54.101Z,18.42
2023-04-18T17:00:21.300Z,18.16
2023-04-18T17:02:48.411Z,18.25
2023-04-18T17:05:35.472Z,18.01
2023-04-18T17:08:37.427Z,17.81
2023-04-18T17:11:17.995Z,17.71
2023-04-18T17:13:45.011Z,17.74
2023-04-18T17:16:32.448Z,17.94
2023-04-18T17:19:33.434Z,17.56
2023-04-18T17:22:37.494Z,17.72
2023-04-18T17:25:38.422Z,17.59
2023-04-18T17:28:19.006Z,17.99
2023-04-18T17:30:46.454Z,17.75
2023-04-18T17:33:13.353Z,17.63
2023-04-18T17:35:41.606Z,17.23
2023-04-18T17:38:10.645Z,17.12
2023-04-18T17:40:37.723Z,17.40
2023-04-18T17:43:04.739Z,17.04
2023-04-18T17:45:31.650Z,16.87
2023-04-18T17:48:18.429Z,16.78
2023-04-18T17:51:19.437Z,16.41
2023-04-18T17:54:20.431Z,16.57
2023-04-18T17:57:02.029Z,16.27
2023-04-18T17:59:29.519Z,16.66
2023-04-18T18:01:56.775Z,16.18
2023-04-18T18:04:26.528Z,15.88
2023-04-18T18:06:57.591Z,16.42
2023-04-18T18:09:24.567Z,16.24
2023-04-18T18:11:52.966Z,16.10
2023-04-18T18:14:21.645Z,15.91
2023-04-18T18:17:08.606Z,15.88
2023-04-18T18:20:09.862Z,16.00
2023-04-18T18:23:10.702Z,15.99
2023-04-18T18:26:13.472Z,15.75
2023-04-18T18:28:54.137Z,15.53
2023-04-18T18:31:24.967Z,15.29
2023-04-18T18:33:52.378Z,15.48
2023-04-18T18:36:19.288Z,15.46
2023-04-18T18:38:46.202Z,15.37
2023-04-18T18:41:13.130Z,15.09
2023-04-18T18:43:40.233Z,14.77
2023-04-18T18:46:07.218Z,15.08
2023-04-18T18:48:37.033Z,15.20
2023-04-18T18:51:04.060Z,15.28
2023-04-18T18:53:30.979Z,14.76
2023-04-18T18:56:18.506Z,14.82
2023-04-18T18:59:19.504Z,15.20
2023-04-18T19:02:20.779Z,15.03
2023-04-18T19:05:01.089Z,15.02
2023-04-18T19:07:29.950Z,14.79
2023-04-18T19:09:57.207Z,15.09
2023-04-18T19:12:24.152Z,14.83
2023-04-18T19:15:04.564Z,14.98
2023-04-18T19:17:45.565Z,15.20
2023-04-18T19:20:32.540Z,15.15
2023-04-18T19:23:34.511Z,14.58
2023-04-18T19:26:23.186Z,14.87
2023-04-18T19:28:50.258Z,14.88
2023-04-18T19:31:17.264Z,14.94
2023-04-18T19:33:44.288Z,14.69
2023-04-18T19:36:11.222Z,14.73
2023-04-18T19:38:38.144Z,14.64
2023-04-18T19:41:05.118Z,15.03
2023-04-18T19:43:32.236Z,14.88
2023-04-18T19:45:59.343Z,14.48
2023-04-18T19:48:26.360Z,15.03
2023-04-18T19:50:53.340Z,14.38
2023-04-18T19:53:20.649Z,14.87
2023-04-18T19:56:07.546Z,15.29
2023-04-18T19:58:49.152Z,15.05
2023-04-18T20:01:18.397Z,15.04
2023-04-18T20:03:46.062Z,15.41
2023-04-18T20:06:13.794Z,15.44
2023-04-18T20:08:45.869Z,15.40
2023-04-18T20:11:14.375Z,15.27
2023-04-18T20:13:41.650Z,15.29
2023-04-18T20:16:09.619Z,15.49
2023-04-18T20:18:50.188Z,15.31
2023-04-18T20:21:43.533Z,15.27
2023-04-18T20:24:28.046Z,15.26
2023-04-18T20:26:55.078Z,15.28
2023-04-18T20:29:42.592Z,15.23
2023-04-18T20:32:32.209Z,15.07
2023-04-18T20:35:00.043Z,15.07
2023-04-18T20:37:27.898Z,15.07
2023-04-18T20:39:55.850Z,15.19
2023-04-18T20:42:23.667Z,15.11
2023-04-18T20:44:51.429Z,15.16
2023-04-18T20:47:18.443Z,14.78
2023-04-18T20:49:45.872Z,15.01
2023-04-18T20:52:14.499Z,14.60
2023-04-18T20:54:41.891Z,15.10
2023-04-18T20:57:08.843Z,14.65
2023-04-18T20:59:35.894Z,15.01
2023-04-18T21:02:03.531Z,14.94
2023-04-18T21:04:30.836Z,15.08
2023-04-18T21:06:58.001Z,15.01
2023-04-18T21:09:24.970Z,14.73
2023-04-18T21:11:52.004Z,14.97
2023-04-18T21:14:19.992Z,14.84
2023-04-18T21:16:46.950Z,14.76
2023-04-18T21:19:13.896Z,14.69
2023-04-18T21:22:00.583Z,14.80
2023-04-18T21:25:01.549Z,14.57
2023-04-18T21:27:42.127Z,14.30
2023-04-18T21:30:09.183Z,14.27
2023-04-18T21:32:36.397Z,14.52
2023-04-18T21:35:03.692Z,14.16
2023-04-18T21:37:31.644Z,14.59
2023-04-18T21:39:58.508Z,14.54
2023-04-18T21:42:25.433Z,14.50
2023-04-18T21:44:52.351Z,14.23
2023-04-18T21:47:19.545Z,14.12
2023-04-18T21:49:46.509Z,14.09
2023-04-18T21:52:13.606Z,14.04
2023-04-18T21:55:00.608Z,14.23
2023-04-18T21:57:41.220Z,14.09
2023-04-18T22:00:10.650Z,14.37
2023-04-18T22:02:40.068Z,14.15
2023-04-18T22:05:08.093Z,13.75
2023-04-18T22:07:43.222Z,14.03
2023-04-18T22:10:18.468Z,14.33
2023-04-18T22:12:45.898Z,13.92
2023-04-18T22:15:12.899Z,14.29
2023-04-18T22:17:41.518Z,13.10
2023-04-18T22:20:28.631Z,13.73
2023-04-18T22:23:09.345Z,13.88
2023-04-18T22:25:36.405Z,13.73
2023-04-18T22:28:04.335Z,13.96
2023-04-18T22:30:31.965Z,13.90
2023-04-18T22:32:59.336Z,13.74
2023-04-18T22:35:26.858Z,13.85
2023-04-18T22:37:53.906Z,13.79
2023-04-18T22:40:20.853Z,13.70
2023-04-18T22:42:47.802Z,13.70
2023-04-18T22:45:15.550Z,12.93
2023-04-18T22:47:42.550Z,12.95
2023-04-18T22:50:09.918Z,13.64
2023-04-18T22:52:36.897Z,13.54
2023-04-18T22:55:04.115Z,13.76
2023-04-18T22:57:31.356Z,13.29
2023-04-18T22:59:58.364Z,13.64
2023-04-18T23:02:25.455Z,13.72
2023-04-18T23:04:53.407Z,13.72
2023-04-18T23:07:20.334Z,13.06
2023-04-18T23:09:47.277Z,13.89
2023-04-18T23:12:14.324Z,13.38
2023-04-18T23:14:41.983Z,13.68
2023-04-18T23:17:09.016Z,13.78
2023-04-18T23:19:36.092Z,13.66
2023-04-18T23:22:22.640Z,13.62
2023-04-18T23:25:23.680Z,13.84
2023-04-18T23:28:04.415Z,13.75
2023-04-18T23:30:31.424Z,13.59
2023-04-18T23:32:58.358Z,13.57
2023-04-18T23:35:25.363Z,13.05
2023-04-18T23:37:52.212Z,13.64
2023-04-18T23:40:39.646Z,13.59
2023-04-18T23:43:33.591Z,13.49
2023-04-18T23:46:00.977Z,13.66
2023-04-18T23:48:28.011Z,13.27
2023-04-18T23:50:54.982Z,13.47
2023-04-18T23:53:22.841Z,12.62
2023-04-18T23:55:51.088Z,13.33
2023-04-18T23:58:18.300Z,13.29
